createdAt,value
2018-11-21T00:00:44.423Z,16.03
2018-11-21T00:03:13.086Z,17.47
2018-11-21T00:05:41.719Z,14.60
2018-11-21T00:08:10.366Z,16.97
2018-11-21T00:10:39.054Z,16.67
2018-11-21T00:13:07.749Z,16.50
2018-11-21T00:15:36.459Z,15.53
2018-11-21T00:18:05.106Z,14.40
2018-11-21T00:20:34.264Z,15.37
2018-11-21T00:23:02.940Z,15.50
2018-11-21T00:25:31.624Z,15.80
2018-11-21T00:28:00.268Z,14.20
2018-11-21T00:30:28.835Z,14.20
2018-11-21T00:32:57.579Z,15.37
2018-11-21T00:35:26.292Z,16.13
2018-11-21T00:37:54.909Z,15.53
2018-11-21T00:40:23.528Z,14.50
2018-11-21T00:42:52.223Z,15.90
2018-11-21T00:45:20.898Z,15.57
2018-11-21T00:47:49.532Z,15.37
2018-11-21T00:50:18.168Z,16.10
2018-11-21T00:52:46.896Z,16.60
2018-11-21T00:55:15.529Z,15.67
2018-11-21T00:57:44.159Z,17.03
2018-11-21T01:00:13.097Z,17.80
2018-11-21T01:02:41.886Z,17.73
2018-11-21T01:05:10.569Z,16.83
2018-11-21T01:07:39.164Z,18.63
2018-11-21T01:10:07.826Z,17.53
2018-11-21T01:12:36.593Z,17.10
2018-11-21T01:15:05.858Z,16.40
2018-11-21T01:17:34.507Z,17.37
2018-11-21T01:20:03.164Z,17.07
2018-11-21T01:22:31.885Z,16.40
2018-11-21T01:25:00.558Z,17.27
2018-11-21T01:27:29.131Z,16.97
2018-11-21T01:29:58.119Z,15.87
2018-11-21T01:32:26.844Z,17.20
2018-11-21T01:34:55.497Z,17.43
2018-11-21T01:37:24.141Z,17.60
2018-11-21T01:39:52.734Z,18.57
2018-11-21T01:42:21.471Z,17.50
2018-11-21T01:44:50.083Z,17.23
2018-11-21T01:47:18.716Z,15.30
2018-11-21T01:49:47.395Z,17.57
2018-11-21T01:52:16.213Z,16.10
2018-11-21T01:54:44.829Z,16.37
2018-11-21T01:57:13.547Z,16.10
2018-11-21T01:59:42.170Z,15.70
2018-11-21T02:02:10.860Z,17.73
2018-11-21T02:04:39.588Z,16.27
2018-11-21T02:07:08.534Z,15.30
2018-11-21T02:09:37.197Z,15.07
2018-11-21T02:12:06.113Z,15.57
2018-11-21T02:14:34.774Z,14.70
2018-11-21T02:17:03.446Z,16.17
2018-11-21T02:19:32.144Z,17.00
2018-11-21T02:22:00.798Z,14.10
2018-11-21T02:24:29.435Z,15.93
2018-11-21T02:26:58.200Z,15.07
2018-11-21T02:29:26.853Z,15.07
2018-11-21T02:31:55.516Z,17.37
2018-11-21T02:34:24.191Z,14.27
2018-11-21T02:36:53.000Z,15.60
2018-11-21T02:39:21.678Z,17.57
2018-11-21T02:41:50.320Z,16.63
2018-11-21T02:44:19.090Z,17.00
2018-11-21T02:46:47.706Z,18.20
2018-11-21T02:49:16.348Z,16.70
2018-11-21T02:51:45.014Z,16.70
2018-11-21T02:54:13.653Z,14.67
2018-11-21T02:57:20.093Z,15.43
2018-11-21T02:59:49.538Z,14.00
2018-11-21T03:02:18.320Z,15.33
2018-11-21T03:04:47.165Z,16.43
2018-11-21T03:07:15.927Z,16.63
2018-11-21T03:09:44.679Z,17.40
2018-11-21T03:12:13.340Z,16.73
2018-11-21T03:14:42.053Z,16.20
2018-11-21T03:17:10.644Z,16.30
2018-11-21T03:19:39.292Z,17.80
2018-11-21T03:22:08.038Z,16.43
2018-11-21T03:24:36.674Z,17.13
2018-11-21T03:27:05.380Z,17.00
2018-11-21T03:29:34.263Z,16.27
2018-11-21T03:32:02.882Z,17.03
2018-11-21T03:34:31.491Z,18.13
2018-11-21T03:37:00.136Z,16.20
2018-11-21T03:39:28.746Z,15.93
2018-11-21T03:41:57.536Z,19.03
2018-11-21T03:44:26.214Z,17.53
2018-11-21T03:46:54.833Z,18.03
2018-11-21T03:49:24.198Z,16.90
2018-11-21T03:51:53.442Z,15.97
2018-11-21T03:54:22.044Z,17.10
2018-11-21T03:56:50.689Z,19.30
2018-11-21T03:59:19.386Z,17.23
2018-11-21T04:01:48.095Z,17.70
2018-11-21T04:04:16.916Z,16.77
2018-11-21T04:06:45.551Z,18.73
2018-11-21T04:09:14.154Z,16.50
2018-11-21T04:11:42.791Z,18.37
2018-11-21T04:14:11.533Z,16.40
2018-11-21T04:16:40.675Z,18.27
2018-11-21T04:19:09.427Z,19.63
2018-11-21T04:21:38.104Z,18.80
2018-11-21T04:24:06.905Z,18.97
2018-11-21T04:26:35.713Z,18.83
2018-11-21T04:29:04.713Z,18.40
2018-11-21T04:31:33.324Z,19.30
2018-11-21T04:34:02.068Z,16.70
2018-11-21T04:36:30.772Z,19.63
2018-11-21T04:38:59.515Z,18.07
2018-11-21T04:41:28.243Z,18.03
2018-11-21T04:43:57.006Z,17.63
2018-11-21T04:46:25.878Z,18.10
2018-11-21T04:48:54.474Z,17.87
2018-11-21T04:51:23.119Z,18.70
2018-11-21T04:53:51.765Z,16.00
2018-11-21T04:56:20.424Z,17.70
2018-11-21T04:58:49.015Z,17.77
2018-11-21T05:01:17.980Z,18.53
2018-11-21T05:03:46.781Z,17.03
2018-11-21T05:06:33.663Z,17.13
2018-11-21T05:09:02.290Z,17.17
2018-11-21T05:11:30.973Z,17.80
2018-11-21T05:14:00.056Z,20.10
2018-11-21T05:16:28.927Z,15.70
2018-11-21T05:18:57.560Z,19.00
2018-11-21T05:21:26.180Z,18.60
2018-11-21T05:23:54.838Z,19.33
2018-11-21T05:26:23.484Z,17.83
2018-11-21T05:28:52.095Z,18.97
2018-11-21T05:31:20.690Z,18.43
2018-11-21T05:33:49.371Z,19.03
2018-11-21T05:36:18.028Z,17.87
2018-11-21T05:38:46.703Z,17.73
2018-11-21T05:41:15.319Z,20.37
2018-11-21T05:43:44.080Z,20.03
2018-11-21T05:46:12.706Z,18.23
2018-11-21T05:48:41.373Z,19.90
2018-11-21T05:51:10.062Z,18.30
2018-11-21T05:53:38.680Z,16.23
2018-11-21T05:56:07.330Z,19.60
2018-11-21T05:58:36.067Z,20.60
2018-11-21T06:01:04.759Z,24.17
2018-11-21T06:03:33.464Z,18.43
2018-11-21T06:06:02.203Z,19.53
2018-11-21T06:08:30.839Z,18.97
2018-11-21T06:10:59.548Z,16.90
2018-11-21T06:13:28.202Z,19.47
2018-11-21T06:15:57.033Z,18.70
2018-11-21T06:18:25.681Z,19.03
2018-11-21T06:20:54.999Z,17.70
2018-11-21T06:23:23.705Z,18.60
2018-11-21T06:25:52.530Z,17.20
2018-11-21T06:28:21.152Z,18.90
2018-11-21T06:30:49.807Z,21.30
2018-11-21T06:33:18.456Z,18.83
2018-11-21T06:35:47.378Z,17.70
2018-11-21T06:38:16.205Z,23.07
2018-11-21T06:40:44.867Z,19.57
2018-11-21T06:43:13.514Z,17.63
2018-11-21T06:45:42.134Z,20.37
2018-11-21T06:48:10.809Z,20.17
2018-11-21T06:50:39.572Z,19.53
2018-11-21T06:53:08.479Z,21.57
2018-11-21T06:55:37.441Z,21.20
2018-11-21T06:58:06.384Z,18.23
2018-11-21T07:00:35.074Z,20.13
2018-11-21T07:03:03.767Z,19.67
2018-11-21T07:05:32.416Z,19.43
2018-11-21T07:08:01.638Z,21.00
2018-11-21T07:10:31.869Z,18.90
2018-11-21T07:13:00.550Z,20.10
2018-11-21T07:15:29.226Z,19.47
2018-11-21T07:17:58.165Z,18.23
2018-11-21T07:20:26.829Z,21.97
2018-11-21T07:22:56.945Z,19.80
2018-11-21T07:25:25.996Z,20.87
2018-11-21T07:27:57.707Z,20.30
2018-11-21T07:30:26.344Z,20.00
2018-11-21T07:32:55.249Z,19.57
2018-11-21T07:35:23.929Z,19.37
2018-11-21T07:37:52.694Z,19.90
2018-11-21T07:40:21.459Z,19.77
2018-11-21T07:42:50.416Z,19.70
2018-11-21T07:45:20.031Z,21.70
2018-11-21T07:47:48.892Z,19.90
2018-11-21T07:50:19.298Z,20.87
2018-11-21T07:52:48.070Z,20.30
2018-11-21T07:55:16.852Z,18.07
2018-11-21T07:57:53.035Z,20.37
2018-11-21T08:01:18.076Z,19.40
2018-11-21T08:03:48.697Z,20.47
2018-11-21T08:06:23.969Z,22.50
2018-11-21T08:09:30.280Z,20.77
2018-11-21T08:12:20.618Z,19.40
2018-11-21T08:15:19.064Z,18.70
2018-11-21T08:18:18.670Z,20.00
2018-11-21T08:21:04.992Z,20.37
2018-11-21T08:23:47.499Z,20.10
2018-11-21T08:26:25.950Z,17.97
2018-11-21T08:28:54.722Z,18.73
2018-11-21T08:31:23.387Z,20.17
2018-11-21T08:33:52.041Z,19.40
2018-11-21T08:36:20.936Z,19.37
2018-11-21T08:38:49.785Z,20.90
2018-11-21T08:41:19.430Z,19.40
2018-11-21T08:43:48.127Z,19.77
2018-11-21T08:46:16.826Z,20.37
2018-11-21T08:48:45.508Z,20.57
2018-11-21T08:51:14.178Z,23.47
2018-11-21T08:53:42.827Z,20.27
2018-11-21T08:56:11.540Z,20.67
2018-11-21T08:58:40.199Z,21.03
2018-11-21T09:01:08.767Z,20.10
2018-11-21T09:03:37.422Z,20.37
2018-11-21T09:06:06.168Z,20.20
2018-11-21T09:08:35.751Z,19.40
2018-11-21T09:11:04.441Z,19.33
2018-11-21T09:13:33.103Z,19.50
2018-11-21T09:16:01.748Z,20.27
2018-11-21T09:18:30.886Z,19.93
2018-11-21T09:20:59.572Z,19.23
2018-11-21T09:23:28.211Z,21.20
2018-11-21T09:25:56.848Z,21.03
2018-11-21T09:28:25.785Z,21.17
2018-11-21T09:30:54.471Z,19.73
2018-11-21T09:33:23.143Z,20.00
2018-11-21T09:35:51.943Z,23.67
2018-11-21T09:38:20.608Z,19.80
2018-11-21T09:40:49.350Z,21.80
2018-11-21T09:43:18.018Z,20.47
2018-11-21T09:45:46.665Z,21.50
2018-11-21T09:48:15.487Z,22.57
2018-11-21T09:50:44.159Z,19.87
2018-11-21T09:53:12.780Z,21.37
2018-11-21T09:55:41.646Z,20.40
2018-11-21T09:58:10.286Z,22.77
2018-11-21T10:01:15.289Z,20.90
2018-11-21T10:03:44.064Z,20.53
2018-11-21T10:06:18.124Z,20.07
2018-11-21T10:09:14.890Z,19.30
2018-11-21T10:11:43.523Z,18.20
2018-11-21T10:14:12.448Z,19.13
2018-11-21T10:16:41.161Z,20.10
2018-11-21T10:19:10.065Z,19.30
2018-11-21T10:21:38.866Z,19.67
2018-11-21T10:24:07.531Z,20.50
2018-11-21T10:26:36.168Z,20.57
2018-11-21T10:29:04.995Z,19.47
2018-11-21T10:31:33.639Z,18.93
2018-11-21T10:34:02.377Z,21.70
2018-11-21T10:36:31.187Z,18.80
2018-11-21T10:39:00.043Z,19.67
2018-11-21T10:41:28.668Z,18.73
2018-11-21T10:43:57.269Z,21.20
2018-11-21T10:46:25.921Z,20.90
2018-11-21T10:48:54.486Z,18.57
2018-11-21T10:51:23.189Z,19.03
2018-11-21T10:53:51.931Z,20.20
2018-11-21T10:56:20.642Z,18.03
2018-11-21T10:58:49.355Z,18.93
2018-11-21T11:01:35.917Z,20.70
2018-11-21T11:04:29.287Z,21.03
2018-11-21T11:07:23.211Z,20.17
2018-11-21T11:10:18.655Z,22.13
2018-11-21T11:12:58.120Z,22.20
2018-11-21T11:15:48.681Z,20.40
2018-11-21T11:18:34.261Z,17.67
2018-11-21T11:21:20.652Z,21.37
2018-11-21T11:24:11.213Z,18.77
2018-11-21T11:27:04.537Z,19.53
2018-11-21T11:29:55.017Z,20.10
2018-11-21T11:32:41.222Z,16.73
2018-11-21T11:35:33.700Z,18.97
2018-11-21T11:38:24.495Z,18.50
2018-11-21T11:41:27.544Z,19.17
2018-11-21T11:44:30.388Z,19.73
2018-11-21T11:47:11.461Z,21.13
2018-11-21T11:49:55.848Z,18.63
2018-11-21T11:52:46.474Z,19.80
2018-11-21T11:55:32.975Z,20.93
2018-11-21T11:58:17.597Z,20.00
2018-11-21T12:01:23.619Z,18.27
2018-11-21T12:04:10.099Z,19.50
2018-11-21T12:06:45.545Z,20.47
2018-11-21T12:09:32.028Z,19.33
2018-11-21T12:12:18.124Z,21.03
2018-11-21T12:15:08.536Z,25.47
2018-11-21T12:17:44.668Z,21.60
2018-11-21T12:20:30.891Z,19.50
2018-11-21T12:23:21.340Z,17.70
2018-11-21T12:26:14.652Z,20.73
2018-11-21T12:29:08.074Z,18.90
2018-11-21T12:32:04.952Z,23.10
2018-11-21T12:35:04.384Z,19.00
2018-11-21T12:37:52.157Z,20.70
2018-11-21T12:40:39.876Z,21.63
2018-11-21T12:43:26.133Z,21.83
2018-11-21T12:46:12.715Z,18.67
2018-11-21T12:49:09.383Z,17.70
2018-11-21T12:51:57.111Z,18.13
2018-11-21T12:54:43.299Z,17.10
2018-11-21T12:57:39.782Z,18.50
2018-11-21T13:00:27.316Z,17.97
2018-11-21T13:03:14.084Z,15.90
2018-11-21T13:06:08.072Z,17.43
2018-11-21T13:09:07.725Z,17.90
2018-11-21T13:11:55.456Z,18.07
2018-11-21T13:14:41.890Z,17.13
2018-11-21T13:17:18.386Z,16.77
2018-11-21T13:20:04.527Z,17.30
2018-11-21T13:22:41.598Z,18.27
2018-11-21T13:25:25.139Z,19.73
2018-11-21T13:28:11.740Z,17.40
2018-11-21T13:30:51.699Z,17.47
2018-11-21T13:33:51.669Z,17.40
2018-11-21T13:36:57.809Z,18.57
2018-11-21T13:40:00.815Z,15.97
2018-11-21T13:43:04.360Z,16.57
2018-11-21T13:46:07.187Z,17.77
2018-11-21T13:49:03.785Z,16.40
2018-11-21T13:51:40.055Z,14.20
2018-11-21T13:54:17.225Z,15.10
2018-11-21T13:56:46.944Z,16.47
2018-11-21T13:59:16.272Z,16.77
2018-11-21T14:01:44.899Z,16.27
2018-11-21T14:04:13.535Z,17.47
2018-11-21T14:06:42.571Z,16.00
2018-11-21T14:09:12.655Z,14.50
2018-11-21T14:11:41.475Z,17.03
2018-11-21T14:14:10.570Z,17.03
2018-11-21T14:16:39.276Z,17.47
2018-11-21T14:19:09.174Z,16.43
2018-11-21T14:21:37.827Z,15.83
2018-11-21T14:24:06.752Z,17.20
2018-11-21T14:26:35.422Z,16.93
2018-11-21T14:29:04.041Z,17.40
2018-11-21T14:31:32.739Z,17.10
2018-11-21T14:34:01.394Z,16.83
2018-11-21T14:36:30.197Z,16.13
2018-11-21T14:38:59.149Z,17.37
2018-11-21T14:41:27.794Z,17.50
2018-11-21T14:43:56.436Z,17.80
2018-11-21T14:46:25.123Z,18.47
2018-11-21T14:48:53.844Z,17.00
2018-11-21T14:51:22.569Z,16.07
2018-11-21T14:53:51.357Z,15.90
2018-11-21T14:56:20.085Z,18.00
2018-11-21T14:58:48.800Z,16.77
2018-11-21T15:01:20.004Z,17.30
2018-11-21T15:03:48.699Z,17.00
2018-11-21T15:06:17.396Z,17.47
2018-11-21T15:08:46.305Z,15.60
2018-11-21T15:11:15.199Z,17.37
2018-11-21T15:13:43.928Z,16.87
2018-11-21T15:16:12.654Z,18.93
2018-11-21T15:18:41.284Z,16.07
2018-11-21T15:21:16.282Z,19.10
2018-11-21T15:23:38.726Z,17.23
2018-11-21T15:26:07.391Z,17.97
2018-11-21T15:28:36.297Z,18.50
2018-11-21T15:31:05.490Z,17.90
2018-11-21T15:33:34.251Z,20.30
2018-11-21T15:36:02.983Z,21.80
2018-11-21T15:38:31.831Z,17.63
2018-11-21T15:41:00.531Z,19.13
2018-11-21T15:43:29.185Z,18.20
2018-11-21T15:45:57.990Z,20.90
2018-11-21T15:48:26.901Z,20.00
2018-11-21T15:50:55.883Z,19.77
2018-11-21T15:53:24.594Z,21.37
2018-11-21T15:55:53.452Z,18.90
2018-11-21T15:58:22.201Z,18.93
2018-11-21T16:00:51.159Z,19.57
2018-11-21T16:03:20.237Z,21.07
2018-11-21T16:05:48.993Z,17.77
2018-11-21T16:08:17.790Z,17.40
2018-11-21T16:10:47.906Z,20.93
2018-11-21T16:13:16.611Z,19.77
2018-11-21T16:15:47.301Z,17.50
2018-11-21T16:18:16.964Z,17.67
2018-11-21T16:20:45.694Z,19.00
2018-11-21T16:23:14.765Z,18.67
2018-11-21T16:25:43.700Z,20.43
2018-11-21T16:28:12.487Z,21.50
2018-11-21T16:30:41.339Z,19.83
2018-11-21T16:33:10.753Z,21.93
2018-11-21T16:35:39.533Z,20.37
2018-11-21T16:38:08.417Z,19.27
2018-11-21T16:40:37.481Z,22.47
2018-11-21T16:43:06.692Z,21.47
2018-11-21T16:45:41.298Z,19.80
2018-11-21T16:48:10.308Z,22.10
2018-11-21T16:50:39.161Z,22.93
2018-11-21T16:53:07.962Z,21.80
2018-11-21T16:55:36.811Z,19.53
2018-11-21T16:58:05.789Z,18.83
2018-11-21T17:00:34.794Z,19.83
2018-11-21T17:03:03.966Z,19.00
2018-11-21T17:05:32.827Z,14.67
2018-11-21T17:08:01.646Z,17.23
2018-11-21T17:10:31.420Z,19.63
2018-11-21T17:13:00.250Z,17.80
2018-11-21T17:15:30.566Z,20.63
2018-11-21T17:17:59.304Z,18.77
2018-11-21T17:20:32.552Z,20.97
2018-11-21T17:23:01.629Z,20.10
2018-11-21T17:25:34.848Z,20.37
2018-11-21T17:28:03.810Z,22.10
2018-11-21T17:30:32.481Z,23.00
2018-11-21T17:33:01.292Z,19.90
2018-11-21T17:35:30.295Z,20.40
2018-11-21T17:38:02.100Z,20.37
2018-11-21T17:40:30.205Z,19.20
2018-11-21T17:42:59.351Z,19.67
2018-11-21T17:45:28.221Z,20.77
2018-11-21T17:47:56.981Z,20.97
2018-11-21T17:50:26.265Z,21.60
2018-11-21T17:52:56.532Z,19.03
2018-11-21T17:55:26.688Z,19.13
2018-11-21T17:57:55.306Z,21.07
2018-11-21T18:00:25.332Z,20.50
2018-11-21T18:02:54.029Z,21.90
2018-11-21T18:05:33.507Z,19.17
2018-11-21T18:08:02.527Z,19.27
2018-11-21T18:10:33.544Z,20.83
2018-11-21T18:13:02.385Z,21.20
2018-11-21T18:15:31.392Z,21.70
2018-11-21T18:18:00.393Z,19.80
2018-11-21T18:20:29.220Z,22.90
2018-11-21T18:22:58.775Z,19.50
2018-11-21T18:25:30.062Z,20.67
2018-11-21T18:27:59.325Z,19.30
2018-11-21T18:30:28.102Z,19.70
2018-11-21T18:32:56.858Z,18.60
2018-11-21T18:35:25.989Z,20.37
2018-11-21T18:37:54.829Z,17.57
2018-11-21T18:40:24.975Z,20.83
2018-11-21T18:42:53.973Z,18.43
2018-11-21T18:45:25.433Z,19.27
2018-11-21T18:47:54.541Z,18.93
2018-11-21T18:50:23.446Z,19.23
2018-11-21T18:52:53.670Z,17.97
2018-11-21T18:55:27.819Z,20.40
2018-11-21T18:58:53.516Z,20.20
2018-11-21T19:01:23.082Z,19.63
2018-11-21T19:03:52.247Z,19.87
2018-11-21T19:06:21.251Z,18.03
2018-11-21T19:08:50.501Z,17.37
2018-11-21T19:11:19.530Z,18.90
2018-11-21T19:13:48.325Z,19.17
2018-11-21T19:16:17.094Z,18.90
2018-11-21T19:18:48.795Z,25.00
2018-11-21T19:21:17.660Z,22.73
2018-11-21T19:23:47.035Z,21.80
2018-11-21T19:26:15.713Z,21.13
2018-11-21T19:28:44.464Z,21.33
2018-11-21T19:31:13.854Z,21.53
2018-11-21T19:33:42.620Z,20.57
2018-11-21T19:36:11.691Z,21.07
2018-11-21T19:38:40.793Z,21.67
2018-11-21T19:41:09.618Z,20.80
2018-11-21T19:43:38.366Z,24.47
2018-11-21T19:46:07.388Z,20.07
2018-11-21T19:48:36.493Z,20.00
2018-11-21T19:51:05.440Z,20.63
2018-11-21T19:53:34.500Z,20.17
2018-11-21T19:56:03.214Z,20.70
2018-11-21T19:58:32.307Z,21.83
2018-11-21T20:01:01.265Z,21.33
2018-11-21T20:03:30.172Z,22.00
2018-11-21T20:05:59.107Z,19.90
2018-11-21T20:08:28.085Z,22.67
2018-11-21T20:10:56.885Z,21.87
2018-11-21T20:13:26.048Z,22.50
2018-11-21T20:15:55.242Z,23.50
2018-11-21T20:18:24.081Z,22.47
2018-11-21T20:20:53.399Z,23.23
2018-11-21T20:23:22.394Z,19.43
2018-11-21T20:25:51.268Z,20.60
2018-11-21T20:28:20.374Z,20.63
2018-11-21T20:30:49.777Z,21.33
2018-11-21T20:33:18.458Z,19.70
2018-11-21T20:35:47.377Z,19.50
2018-11-21T20:38:16.807Z,19.70
2018-11-21T20:40:45.957Z,20.03
2018-11-21T20:43:15.562Z,18.40
2018-11-21T20:45:44.418Z,20.23
2018-11-21T20:48:13.130Z,20.13
2018-11-21T20:50:41.898Z,18.27
2018-11-21T20:53:11.321Z,19.23
2018-11-21T20:55:41.213Z,17.53
2018-11-21T20:58:10.577Z,18.33
2018-11-21T21:00:39.534Z,18.27
2018-11-21T21:03:08.513Z,18.30
2018-11-21T21:05:37.446Z,18.50
2018-11-21T21:08:06.699Z,17.40
2018-11-21T21:10:43.952Z,18.63
2018-11-21T21:13:12.720Z,17.63
2018-11-21T21:15:41.636Z,16.97
2018-11-21T21:18:10.585Z,18.40
2018-11-21T21:20:40.473Z,18.87
2018-11-21T21:23:09.427Z,18.60
2018-11-21T21:25:38.380Z,20.67
2018-11-21T21:28:07.323Z,19.23
2018-11-21T21:30:36.128Z,18.97
2018-11-21T21:33:04.973Z,18.23
2018-11-21T21:35:34.234Z,19.37
2018-11-21T21:38:02.969Z,20.67
2018-11-21T21:40:32.878Z,19.00
2018-11-21T21:43:01.729Z,18.03
2018-11-21T21:45:31.627Z,21.07
2018-11-21T21:48:00.397Z,23.90
2018-11-21T21:50:33.589Z,19.80
2018-11-21T21:53:02.271Z,18.17
2018-11-21T21:55:31.886Z,18.30
2018-11-21T21:58:01.507Z,19.67
2018-11-21T22:00:30.416Z,18.87
2018-11-21T22:03:00.165Z,18.53
2018-11-21T22:05:29.188Z,19.17
2018-11-21T22:07:58.042Z,19.57
2018-11-21T22:10:26.868Z,20.10
2018-11-21T22:12:55.520Z,17.83
2018-11-21T22:15:32.174Z,20.40
2018-11-21T22:18:02.641Z,19.77
2018-11-21T22:20:31.555Z,19.60
2018-11-21T22:23:00.255Z,20.93
2018-11-21T22:25:28.953Z,21.20
2018-11-21T22:27:57.617Z,19.53
2018-11-21T22:30:26.660Z,19.00
2018-11-21T22:32:56.263Z,20.60
2018-11-21T22:35:26.533Z,19.70
2018-11-21T22:37:55.273Z,23.20
2018-11-21T22:40:24.262Z,21.10
2018-11-21T22:42:53.140Z,24.93
2018-11-21T22:45:22.572Z,19.63
2018-11-21T22:47:51.191Z,20.10
2018-11-21T22:50:21.276Z,23.20
2018-11-21T22:52:49.948Z,22.67
2018-11-21T22:55:19.330Z,18.60
2018-11-21T22:57:48.697Z,22.03
2018-11-21T23:00:43.863Z,20.20
2018-11-21T23:03:13.668Z,21.37
2018-11-21T23:05:42.261Z,21.37
2018-11-21T23:08:11.839Z,19.87
2018-11-21T23:10:40.564Z,19.20
2018-11-21T23:13:09.200Z,22.43
2018-11-21T23:15:38.465Z,26.50
2018-11-21T23:18:07.737Z,28.17
2018-11-21T23:20:36.396Z,25.27
2018-11-21T23:23:05.191Z,21.23
2018-11-21T23:25:33.894Z,21.10
2018-11-21T23:28:02.520Z,17.73
2018-11-21T23:30:31.292Z,19.60
2018-11-21T23:32:59.918Z,20.73
2018-11-21T23:35:28.530Z,20.93
2018-11-21T23:37:57.251Z,18.33
2018-11-21T23:40:25.901Z,18.70
2018-11-21T23:42:55.132Z,19.37
2018-11-21T23:45:23.954Z,18.53
2018-11-21T23:47:52.592Z,19.10
2018-11-21T23:50:21.290Z,20.07
2018-11-21T23:52:49.944Z,20.57
2018-11-21T23:55:19.367Z,22.03
2018-11-21T23:57:48.177Z,21.60
